createdAt,value
2023-05-05T00:03:59.502Z,43.79
2023-05-05T00:14:07.952Z,43.84
2023-05-05T00:24:14.749Z,44.03
2023-05-05T00:34:21.084Z,43.97
2023-05-05T00:44:28.354Z,44.02
2023-05-05T00:54:35.500Z,44.04
2023-05-05T01:04:42.856Z,44.09
2023-05-05T01:14:49.568Z,44.07
2023-05-05T01:24:56.934Z,44.12
2023-05-05T01:35:03.768Z,44.14
2023-05-05T01:45:10.857Z,44.10
2023-05-05T01:55:17.802Z,44.19
2023-05-05T02:05:24.916Z,44.15
2023-05-05T02:15:31.876Z,44.23
2023-05-05T02:25:39.059Z,44.21
2023-05-05T02:35:45.919Z,44.18
2023-05-05T02:45:53.016Z,44.29
2023-05-05T02:55:59.966Z,44.28
2023-05-05T03:06:07.002Z,44.29
2023-05-05T03:16:14.409Z,44.22
2023-05-05T03:26:21.984Z,44.27
2023-05-05T03:36:29.563Z,44.29
2023-05-05T03:46:36.312Z,44.37
2023-05-05T03:56:43.177Z,44.36
2023-05-05T04:06:50.528Z,44.25
2023-05-05T04:16:57.295Z,44.29
2023-05-05T04:27:04.254Z,44.29
2023-05-05T04:37:11.636Z,44.31
2023-05-05T04:47:18.483Z,44.30
2023-05-05T04:57:25.544Z,44.18
2023-05-05T05:07:32.520Z,44.15
2023-05-05T05:17:39.958Z,44.17
2023-05-05T05:27:55.286Z,44.43
2023-05-05T05:38:00.198Z,44.93
2023-05-05T05:48:07.829Z,45.50
2023-05-05T05:58:14.975Z,46.15
2023-05-05T06:08:22.573Z,47.00
2023-05-05T06:18:32.147Z,47.02
2023-05-05T06:28:39.241Z,47.34
2023-05-05T06:38:46.010Z,47.89
2023-05-05T06:48:52.815Z,48.27
2023-05-05T06:59:00.245Z,48.66
2023-05-05T07:09:07.215Z,49.39
2023-05-05T07:19:14.492Z,49.23
2023-05-05T07:29:20.951Z,48.46
2023-05-05T07:39:28.554Z,48.04
2023-05-05T07:49:35.471Z,47.78
2023-05-05T07:59:42.726Z,47.80
2023-05-05T08:09:49.551Z,47.44
2023-05-05T08:19:56.781Z,47.11
2023-05-05T08:30:04.106Z,47.03
2023-05-05T08:40:11.716Z,47.18
2023-05-05T08:50:19.548Z,47.32
2023-05-05T09:00:26.705Z,47.28
2023-05-05T09:10:33.831Z,47.20
2023-05-05T09:20:41.358Z,47.35
2023-05-05T09:30:47.751Z,47.76
2023-05-05T09:40:55.716Z,48.12
2023-05-05T09:51:03.092Z,48.42
2023-05-05T10:01:09.880Z,48.72
2023-05-05T10:11:16.933Z,49.05
2023-05-05T10:21:24.193Z,49.25
2023-05-05T10:31:31.748Z,49.54
2023-05-05T10:41:38.493Z,49.80
2023-05-05T10:51:46.073Z,49.93
2023-05-05T11:01:53.459Z,49.79
2023-05-05T11:12:01.015Z,49.37
2023-05-05T11:22:08.216Z,48.86
2023-05-05T11:32:15.867Z,48.50
2023-05-05T11:42:23.379Z,48.27
2023-05-05T11:52:30.584Z,48.23
2023-05-05T12:02:37.460Z,48.20
2023-05-05T12:12:44.620Z,48.08
2023-05-05T12:22:51.615Z,47.99
2023-05-05T12:32:58.748Z,47.66
2023-05-05T12:43:06.048Z,47.56
2023-05-05T12:53:12.701Z,47.48
2023-05-05T13:03:20.017Z,47.38
2023-05-05T13:13:27.826Z,47.38
2023-05-05T13:23:35.062Z,47.30
2023-05-05T13:33:41.941Z,47.22
2023-05-05T13:43:49.035Z,47.16
2023-05-05T13:53:55.886Z,46.99
2023-05-05T14:04:05.421Z,46.83
2023-05-05T14:14:13.176Z,46.78
2023-05-05T14:24:20.233Z,46.84
2023-05-05T14:34:26.948Z,46.69
2023-05-05T14:44:34.533Z,46.64
2023-05-05T14:54:41.313Z,46.55
2023-05-05T15:04:49.761Z,46.57
2023-05-05T15:14:57.409Z,46.60
2023-05-05T15:25:05.501Z,46.65
2023-05-05T15:35:12.216Z,46.61
2023-05-05T15:45:19.522Z,46.47
2023-05-05T15:55:26.260Z,46.44
2023-05-05T16:05:33.498Z,46.41
2023-05-05T16:15:40.498Z,46.45
2023-05-05T16:25:47.485Z,46.51
2023-05-05T16:35:54.939Z,46.44
2023-05-05T16:46:02.037Z,46.19
2023-05-05T16:56:09.665Z,46.13
2023-05-05T17:06:16.823Z,46.07
2023-05-05T17:16:24.078Z,45.82
2023-05-05T17:26:31.073Z,45.63
2023-05-05T17:36:38.026Z,45.59
2023-05-05T17:46:45.059Z,45.61
2023-05-05T17:56:53.286Z,45.58
2023-05-05T18:07:00.192Z,45.81
2023-05-05T18:17:07.189Z,45.61
2023-05-05T18:27:14.305Z,45.46
2023-05-05T18:37:20.869Z,45.36
2023-05-05T18:47:28.231Z,45.27
2023-05-05T18:57:35.165Z,45.21
2023-05-05T19:07:42.661Z,45.14
2023-05-05T19:17:50.018Z,45.07
2023-05-05T19:27:57.144Z,45.00
2023-05-05T19:38:05.735Z,44.91
2023-05-05T19:48:12.796Z,44.88
2023-05-05T19:58:19.152Z,44.82
2023-05-05T20:08:26.745Z,44.75
2023-05-05T20:18:34.438Z,44.76
2023-05-05T20:28:44.838Z,44.76
2023-05-05T20:38:52.519Z,44.75
2023-05-05T20:49:00.066Z,44.73
2023-05-05T20:59:06.500Z,44.71
2023-05-05T21:09:13.647Z,44.69
2023-05-05T21:19:20.952Z,44.67
2023-05-05T21:29:27.673Z,44.65
2023-05-05T21:39:35.257Z,44.64
2023-05-05T21:49:42.915Z,44.66
2023-05-05T21:59:50.306Z,44.67
2023-05-05T22:09:56.799Z,44.66
2023-05-05T22:20:03.488Z,44.64
2023-05-05T22:30:10.488Z,44.63
2023-05-05T22:40:17.919Z,44.63
2023-05-05T22:50:25.716Z,44.68
2023-05-05T23:00:33.549Z,44.72
2023-05-05T23:10:40.513Z,44.73
2023-05-05T23:20:47.225Z,44.72
2023-05-05T23:30:54.523Z,44.71
2023-05-05T23:41:01.375Z,44.74
2023-05-05T23:51:08.565Z,44.79
